Solothurn, Switzerland
Current Conditions -  °F | °C
As of 10:50 PM on Tuesday 25 Nov 2014 (Local Time) from LSZG Reporting Station
Broken Clouds Broken Clouds  
Wind Chill: 46°   Ceiling: 800
Heat Index: 46°   Visibility: 3mi
Dew Point: 46°   Wind: 2mph
Humidity: 100%   Direction: 60°ENE
Pressure: 30.06"   Gusts: NA
Location:  47.22°N, 7.54°E
Report Text: LSZG 252150Z AUTO 06002KT 5000 BKN008 SCT013 08/08 Q1018
Loading
Personal Weather Stations






























Interactive Weather Map New forecast layout! Learn more

10-Day Weather Forecast

Advertisements
Track Severe Weather on mobile